AGGH/HIR METAR and TAF weather

Enter ICAO airport designator
Station Type Date Time Source
AGGH METAR 2021/03/03 21:00 UTC NOAA

AGGH 032100Z 16002KT 9999 FEW015 SCT025 BKN100 26/24 Q1008


Station Type Date Time Source
AGGH Decoded METAR 2021/03/03 21:00 UTC NOAA

Honiara / Henderson, Solomon Islands (AGGH) 09-25S 160-03E 9M
Mar 03, 2021 - 04:00 PM EST / 2021.03.03 2100 UTC
Wind: from the SSE (160 degrees) at 2 MPH (2 KT):0
Visibility: greater than 7 mile(s):0
Sky conditions: mostly cloudy
Temperature: 78 F (26 C)
Dew Point: 75 F (24 C)
Relative Humidity: 88%
Pressure (altimeter): 29.77 in. Hg (1008 hPa)
ob: AGGH 032100Z 16002KT 9999 FEW015 SCT025 BKN100 26/24 Q1008
cycle: 21

Station Type Date Time Source
AGGH TAF 2021/03/03 18:18 UTC NOAA

TAF AGGH 031710Z 0318/0418 34015KT 9999 -SHRA FEW016 BKN100 INTER 0318/0406 5000 TSSH SCT015 FEW016CB BKN025 T 24 25 29 30 Q 1006 1008 1008 1006

Example: see airport list